createdAt,value
2023-03-07T00:03:29.461Z,-1.87
2023-03-07T00:08:39.063Z,-1.96
2023-03-07T00:13:47.192Z,-2.05
2023-03-07T00:18:56.407Z,-2.14
2023-03-07T00:24:05.160Z,-2.22
2023-03-07T00:29:13.637Z,-2.31
2023-03-07T00:34:22.462Z,-2.39
2023-03-07T00:39:30.992Z,-2.47
2023-03-07T00:44:40.049Z,-2.55
2023-03-07T00:49:48.418Z,-2.63
2023-03-07T00:54:56.524Z,-2.70
2023-03-07T01:00:06.590Z,-2.78
2023-03-07T01:05:15.007Z,-2.86
2023-03-07T01:10:23.457Z,-2.94
2023-03-07T01:15:31.912Z,-3.02
2023-03-07T01:20:42.862Z,-3.08
2023-03-07T01:25:51.202Z,-3.15
2023-03-07T01:31:03.716Z,-3.22
2023-03-07T01:36:20.253Z,-3.29
2023-03-07T01:41:32.513Z,-3.35
2023-03-07T01:46:53.870Z,-3.40
2023-03-07T01:52:09.906Z,-3.46
2023-03-07T01:57:25.439Z,-3.52
2023-03-07T02:02:35.136Z,-3.58
2023-03-07T02:07:48.285Z,-3.64
2023-03-07T02:12:57.624Z,-3.69
2023-03-07T02:18:07.049Z,-3.75
2023-03-07T02:23:25.407Z,-3.81
2023-03-07T02:28:34.269Z,-3.88
2023-03-07T02:33:43.581Z,-3.95
2023-03-07T02:38:55.740Z,-4.00
2023-03-07T02:44:04.901Z,-4.07
2023-03-07T02:49:13.472Z,-4.13
2023-03-07T02:54:21.667Z,-4.19
2023-03-07T02:59:29.023Z,-4.24
2023-03-07T03:04:37.587Z,-4.29
2023-03-07T03:09:45.838Z,-4.34
2023-03-07T03:14:53.920Z,-4.38
2023-03-07T03:20:02.161Z,-4.43
2023-03-07T03:25:13.806Z,-4.46
2023-03-07T03:30:23.311Z,-4.50
2023-03-07T03:35:31.829Z,-4.53
2023-03-07T03:40:41.773Z,-4.56
2023-03-07T03:45:58.322Z,-4.58
2023-03-07T03:51:09.492Z,-4.62
2023-03-07T03:56:20.297Z,-4.64
2023-03-07T04:01:29.767Z,-4.68
2023-03-07T04:06:38.956Z,-4.70
2023-03-07T04:11:47.168Z,-4.74
2023-03-07T04:16:55.769Z,-4.78
2023-03-07T04:22:04.469Z,-4.82
2023-03-07T04:27:13.048Z,-4.84
2023-03-07T04:32:20.850Z,-4.86
2023-03-07T04:37:29.975Z,-4.89
2023-03-07T04:42:42.257Z,-4.91
2023-03-07T04:47:52.618Z,-4.93
2023-03-07T04:52:59.995Z,-4.94
2023-03-07T04:58:13.363Z,-4.97
2023-03-07T05:03:22.535Z,-5.00
2023-03-07T05:08:31.412Z,-5.03
2023-03-07T05:13:39.763Z,-5.06
2023-03-07T05:18:48.577Z,-5.09
2023-03-07T05:23:57.045Z,-5.13
2023-03-07T05:29:04.784Z,-5.16
2023-03-07T05:34:12.457Z,-5.18
2023-03-07T05:39:21.624Z,-5.21
2023-03-07T05:44:31.653Z,-5.23
2023-03-07T05:49:40.968Z,-5.24
2023-03-07T05:54:51.346Z,-5.23
2023-03-07T06:00:00.093Z,-5.21
2023-03-07T06:05:09.787Z,-5.15
2023-03-07T06:10:18.650Z,-5.07
2023-03-07T06:15:27.492Z,-4.98
2023-03-07T06:20:42.191Z,-4.86
2023-03-07T06:25:51.107Z,-4.73
2023-03-07T06:30:59.546Z,-4.59
2023-03-07T06:36:12.659Z,-4.42
2023-03-07T06:41:21.662Z,-4.24
2023-03-07T06:46:31.056Z,-4.06
2023-03-07T06:51:40.287Z,-3.88
2023-03-07T06:56:49.031Z,-3.70
2023-03-07T07:02:00.380Z,-3.52
2023-03-07T07:07:08.995Z,-3.35
2023-03-07T07:12:17.220Z,-3.19
2023-03-07T07:17:26.423Z,-3.02
2023-03-07T07:22:35.349Z,-2.86
2023-03-07T07:27:43.920Z,-2.69
2023-03-07T07:32:52.577Z,-2.52
2023-03-07T07:38:02.817Z,-2.35
2023-03-07T07:43:14.115Z,-2.18
2023-03-07T07:48:27.395Z,-2.08
2023-03-07T07:53:35.690Z,-1.81
2023-03-07T07:58:43.527Z,-1.61
2023-03-07T08:03:52.882Z,-1.41
2023-03-07T08:09:01.814Z,-1.21
2023-03-07T08:14:09.211Z,-1.01
2023-03-07T08:19:17.380Z,-0.81
2023-03-07T08:24:38.541Z,-0.59
2023-03-07T08:29:51.875Z,-0.38
2023-03-07T08:35:00.524Z,-0.14
2023-03-07T08:40:10.942Z,0.06
2023-03-07T08:45:21.342Z,0.23
2023-03-07T08:50:29.409Z,0.41
2023-03-07T08:55:40.347Z,0.57
2023-03-07T09:00:48.820Z,0.71
2023-03-07T09:05:57.348Z,0.81
2023-03-07T09:11:05.951Z,0.91
2023-03-07T09:16:14.557Z,1.01
2023-03-07T09:21:21.940Z,1.09
2023-03-07T09:26:30.774Z,1.15
2023-03-07T09:31:39.548Z,1.19
2023-03-07T09:36:48.087Z,1.23
2023-03-07T09:42:12.000Z,1.27
2023-03-07T09:47:39.780Z,1.30
2023-03-07T09:52:48.781Z,1.32
2023-03-07T09:58:01.568Z,1.33
2023-03-07T10:03:28.325Z,1.33
2023-03-07T10:08:36.698Z,1.32
2023-03-07T10:13:59.328Z,1.34
2023-03-07T10:19:17.453Z,1.36
2023-03-07T10:24:43.812Z,1.31
2023-03-07T10:29:54.215Z,1.39
2023-03-07T10:35:16.163Z,1.39
2023-03-07T10:40:28.414Z,1.41
2023-03-07T10:45:38.267Z,1.45
2023-03-07T10:50:51.764Z,1.49
2023-03-07T10:56:14.138Z,1.53
2023-03-07T11:01:26.033Z,1.60
2023-03-07T11:06:40.763Z,1.69
2023-03-07T11:11:54.942Z,1.77
2023-03-07T11:17:04.743Z,1.86
2023-03-07T11:22:32.783Z,1.91
2023-03-07T11:27:50.836Z,1.97
2023-03-07T11:33:09.215Z,2.03
2023-03-07T11:38:29.639Z,2.07
2023-03-07T11:43:50.507Z,2.11
2023-03-07T11:49:11.945Z,2.15
2023-03-07T11:54:30.132Z,2.18
2023-03-07T12:00:18.410Z,2.22
2023-03-07T12:05:47.108Z,2.24
2023-03-07T12:11:07.066Z,2.28
2023-03-07T12:16:27.764Z,2.30
2023-03-07T12:21:58.577Z,2.30
2023-03-07T12:27:14.831Z,2.29
2023-03-07T12:32:26.254Z,2.27
2023-03-07T12:37:39.952Z,2.23
2023-03-07T12:42:53.948Z,2.18
2023-03-07T12:48:09.466Z,2.13
2023-03-07T12:53:26.169Z,2.09
2023-03-07T12:58:42.303Z,2.04
2023-03-07T13:03:57.554Z,2.01
2023-03-07T13:09:06.538Z,1.98
2023-03-07T13:14:43.667Z,1.95
2023-03-07T13:20:01.863Z,1.92
2023-03-07T13:25:39.517Z,1.90
2023-03-07T13:31:38.538Z,1.86
2023-03-07T13:36:46.064Z,1.86
2023-03-07T13:41:55.233Z,1.87
2023-03-07T13:47:05.476Z,1.88
2023-03-07T13:52:37.278Z,1.89
2023-03-07T13:57:46.630Z,1.90
2023-03-07T14:02:56.089Z,1.91
2023-03-07T14:08:07.925Z,1.90
2023-03-07T14:14:01.693Z,1.91
2023-03-07T14:19:31.094Z,1.91
2023-03-07T14:24:59.706Z,1.93
2023-03-07T14:30:20.227Z,1.93
2023-03-07T14:35:45.724Z,1.94
2023-03-07T14:41:13.516Z,1.95
2023-03-07T14:46:32.600Z,1.96
2023-03-07T14:51:44.206Z,1.97
2023-03-07T14:56:55.599Z,1.99
2023-03-07T15:02:03.986Z,2.01
2023-03-07T15:07:23.441Z,2.04
2023-03-07T15:12:33.886Z,2.06
2023-03-07T15:17:44.508Z,2.08
2023-03-07T15:22:55.062Z,2.09
2023-03-07T15:28:06.368Z,2.10
2023-03-07T15:33:24.306Z,2.11
2023-03-07T15:38:34.004Z,2.12
2023-03-07T15:43:41.612Z,2.13
2023-03-07T15:48:52.489Z,2.15
2023-03-07T15:54:03.916Z,2.17
2023-03-07T15:59:24.758Z,2.18
2023-03-07T16:04:43.773Z,2.21
2023-03-07T16:09:51.060Z,2.24
2023-03-07T16:14:59.847Z,2.26
2023-03-07T16:20:15.690Z,2.28
2023-03-07T16:25:24.637Z,2.29
2023-03-07T16:30:37.049Z,2.31
2023-03-07T16:35:45.711Z,2.33
2023-03-07T16:40:54.014Z,2.34
2023-03-07T16:46:02.499Z,2.36
2023-03-07T16:51:17.613Z,2.37
2023-03-07T16:56:30.940Z,2.39
2023-03-07T17:01:39.559Z,2.41
2023-03-07T17:06:57.707Z,2.43
2023-03-07T17:12:11.329Z,2.44
2023-03-07T17:17:24.082Z,2.44
2023-03-07T17:22:32.858Z,2.44
2023-03-07T17:27:44.199Z,2.44
2023-03-07T17:32:53.050Z,2.42
2023-03-07T17:38:02.068Z,2.40
2023-03-07T17:43:11.139Z,2.39
2023-03-07T17:48:19.753Z,2.36
2023-03-07T17:53:28.148Z,2.34
2023-03-07T17:58:36.866Z,2.31
2023-03-07T18:03:46.213Z,2.30
2023-03-07T18:08:55.102Z,2.28
2023-03-07T18:14:04.302Z,2.26
2023-03-07T18:19:25.465Z,2.23
2023-03-07T18:24:35.217Z,2.19
2023-03-07T18:29:42.997Z,2.15
2023-03-07T18:34:52.854Z,2.14
2023-03-07T18:40:01.666Z,2.10
2023-03-07T18:45:12.159Z,1.99
2023-03-07T18:50:21.170Z,2.04
2023-03-07T18:55:30.066Z,2.01
2023-03-07T19:00:38.828Z,1.98
2023-03-07T19:05:52.687Z,1.94
2023-03-07T19:11:02.892Z,1.91
2023-03-07T19:16:13.826Z,1.89
2023-03-07T19:21:24.051Z,1.86
2023-03-07T19:26:32.317Z,1.83
2023-03-07T19:31:41.378Z,1.81
2023-03-07T19:36:49.623Z,1.80
2023-03-07T19:41:57.722Z,1.77
2023-03-07T19:47:06.221Z,1.76
2023-03-07T19:52:14.858Z,1.74
2023-03-07T19:57:23.671Z,1.74
2023-03-07T20:02:31.856Z,1.74
2023-03-07T20:07:40.080Z,1.72
2023-03-07T20:12:49.210Z,1.71
2023-03-07T20:17:57.194Z,1.68
2023-03-07T20:23:05.759Z,1.61
2023-03-07T20:28:14.198Z,1.52
2023-03-07T20:33:23.360Z,1.42
2023-03-07T20:38:30.918Z,1.35
2023-03-07T20:43:42.227Z,1.29
2023-03-07T20:48:52.489Z,1.22
2023-03-07T20:54:02.464Z,1.17
2023-03-07T20:59:13.556Z,1.10
2023-03-07T21:04:22.087Z,1.07
2023-03-07T21:09:30.437Z,1.02
2023-03-07T21:14:42.027Z,0.98
2023-03-07T21:19:49.908Z,0.97
2023-03-07T21:24:58.438Z,0.95
2023-03-07T21:30:08.795Z,0.92
2023-03-07T21:35:16.518Z,0.89
2023-03-07T21:40:24.522Z,0.87
2023-03-07T21:45:33.331Z,0.85
2023-03-07T21:50:45.599Z,0.84
2023-03-07T21:55:54.767Z,0.82
2023-03-07T22:01:02.917Z,0.79
2023-03-07T22:06:12.786Z,0.77
2023-03-07T22:11:21.124Z,0.75
2023-03-07T22:16:29.514Z,0.74
2023-03-07T22:21:37.643Z,0.71
2023-03-07T22:26:46.669Z,0.66
2023-03-07T22:31:55.201Z,0.69
2023-03-07T22:37:03.305Z,0.67
2023-03-07T22:42:11.630Z,0.66
2023-03-07T22:47:18.989Z,0.64
2023-03-07T22:52:27.327Z,0.63
2023-03-07T22:57:36.310Z,0.62
2023-03-07T23:02:44.477Z,0.60
2023-03-07T23:07:52.769Z,0.59
2023-03-07T23:13:01.182Z,0.57
2023-03-07T23:18:09.705Z,0.57
2023-03-07T23:23:17.941Z,0.57
2023-03-07T23:28:26.910Z,0.56
2023-03-07T23:33:35.792Z,0.56
2023-03-07T23:38:43.484Z,0.55
2023-03-07T23:43:54.668Z,0.54
2023-03-07T23:49:02.271Z,0.54
2023-03-07T23:54:10.633Z,0.53
2023-03-07T23:59:19.228Z,0.53
